sensor_id;sensor_type;location;lat;lon;timestamp;P1;durP1;ratioP1;P2;durP2;ratioP2
42246;SDS011;27913;42.722;23.268;2022-10-16T00:00:40;7.20;;;3.50;;
42246;SDS011;27913;42.722;23.268;2022-10-16T00:03:07;10.10;;;4.07;;
42246;SDS011;27913;42.722;23.268;2022-10-16T00:05:38;11.65;;;4.82;;
42246;SDS011;27913;42.722;23.268;2022-10-16T00:08:06;12.32;;;5.93;;
42246;SDS011;27913;42.722;23.268;2022-10-16T00:10:32;19.85;;;8.48;;
42246;SDS011;27913;42.722;23.268;2022-10-16T00:12:58;12.88;;;5.82;;
42246;SDS011;27913;42.722;23.268;2022-10-16T00:15:24;13.48;;;4.78;;
42246;SDS011;27913;42.722;23.268;2022-10-16T00:17:49;12.07;;;5.40;;
42246;SDS011;27913;42.722;23.268;2022-10-16T00:20:15;13.90;;;5.97;;
42246;SDS011;27913;42.722;23.268;2022-10-16T00:22:40;17.63;;;8.27;;
42246;SDS011;27913;42.722;23.268;2022-10-16T00:25:06;14.55;;;5.97;;
42246;SDS011;27913;42.722;23.268;2022-10-16T00:27:32;12.27;;;5.13;;
42246;SDS011;27913;42.722;23.268;2022-10-16T00:29:58;8.23;;;3.85;;
42246;SDS011;27913;42.722;23.268;2022-10-16T00:32:24;9.98;;;4.43;;
42246;SDS011;27913;42.722;23.268;2022-10-16T00:34:49;10.48;;;5.22;;
42246;SDS011;27913;42.722;23.268;2022-10-16T00:37:15;15.70;;;5.40;;
42246;SDS011;27913;42.722;23.268;2022-10-16T00:39:40;14.63;;;6.40;;
42246;SDS011;27913;42.722;23.268;2022-10-16T00:42:06;10.77;;;5.13;;
42246;SDS011;27913;42.722;23.268;2022-10-16T00:44:42;13.18;;;4.35;;
42246;SDS011;27913;42.722;23.268;2022-10-16T00:47:26;7.18;;;3.60;;
42246;SDS011;27913;42.722;23.268;2022-10-16T00:50:13;10.88;;;3.75;;
42246;SDS011;27913;42.722;23.268;2022-10-16T00:52:46;10.80;;;3.80;;
42246;SDS011;27913;42.722;23.268;2022-10-16T00:55:13;8.13;;;3.40;;
42246;SDS011;27913;42.722;23.268;2022-10-16T00:57:39;8.77;;;4.20;;
42246;SDS011;27913;42.722;23.268;2022-10-16T01:00:07;7.70;;;3.60;;
42246;SDS011;27913;42.722;23.268;2022-10-16T01:05:09;11.55;;;4.22;;
42246;SDS011;27913;42.722;23.268;2022-10-16T01:15:10;7.75;;;3.50;;
42246;SDS011;27913;42.722;23.268;2022-10-16T01:17:48;7.70;;;3.55;;
42246;SDS011;27913;42.722;23.268;2022-10-16T01:31:21;9.35;;;3.80;;
42246;SDS011;27913;42.722;23.268;2022-10-16T01:33:57;6.95;;;3.28;;
42246;SDS011;27913;42.722;23.268;2022-10-16T01:36:38;6.97;;;2.97;;
42246;SDS011;27913;42.722;23.268;2022-10-16T01:39:08;10.20;;;3.05;;
42246;SDS011;27913;42.722;23.268;2022-10-16T01:41:46;8.68;;;3.80;;
42246;SDS011;27913;42.722;23.268;2022-10-16T01:46:48;8.00;;;2.97;;
42246;SDS011;27913;42.722;23.268;2022-10-16T01:49:17;6.93;;;2.88;;
42246;SDS011;27913;42.722;23.268;2022-10-16T01:51:45;6.95;;;3.35;;
42246;SDS011;27913;42.722;23.268;2022-10-16T01:54:15;9.00;;;3.60;;
42246;SDS011;27913;42.722;23.268;2022-10-16T01:56:43;11.48;;;4.25;;
42246;SDS011;27913;42.722;23.268;2022-10-16T01:59:09;9.80;;;4.50;;
42246;SDS011;27913;42.722;23.268;2022-10-16T02:01:40;9.95;;;3.88;;
42246;SDS011;27913;42.722;23.268;2022-10-16T02:04:17;11.00;;;3.83;;
42246;SDS011;27913;42.722;23.268;2022-10-16T02:06:46;9.85;;;4.07;;
42246;SDS011;27913;42.722;23.268;2022-10-16T02:09:12;11.15;;;4.40;;
42246;SDS011;27913;42.722;23.268;2022-10-16T02:11:40;11.20;;;4.50;;
42246;SDS011;27913;42.722;23.268;2022-10-16T02:14:07;9.57;;;3.95;;
42246;SDS011;27913;42.722;23.268;2022-10-16T02:16:37;10.82;;;4.38;;
42246;SDS011;27913;42.722;23.268;2022-10-16T02:19:08;12.07;;;4.38;;
42246;SDS011;27913;42.722;23.268;2022-10-16T02:21:48;12.95;;;5.13;;
42246;SDS011;27913;42.722;23.268;2022-10-16T02:27:05;8.73;;;3.85;;
42246;SDS011;27913;42.722;23.268;2022-10-16T02:29:38;10.73;;;3.63;;
42246;SDS011;27913;42.722;23.268;2022-10-16T02:32:09;6.80;;;3.50;;
42246;SDS011;27913;42.722;23.268;2022-10-16T02:34:37;8.00;;;3.63;;
42246;SDS011;27913;42.722;23.268;2022-10-16T02:37:05;8.10;;;4.03;;
42246;SDS011;27913;42.722;23.268;2022-10-16T02:39:32;11.25;;;3.88;;
42246;SDS011;27913;42.722;23.268;2022-10-16T02:41:59;8.05;;;3.67;;
42246;SDS011;27913;42.722;23.268;2022-10-16T02:44:25;9.88;;;3.90;;
42246;SDS011;27913;42.722;23.268;2022-10-16T02:46:51;8.75;;;4.05;;
42246;SDS011;27913;42.722;23.268;2022-10-16T02:49:17;8.88;;;3.60;;
42246;SDS011;27913;42.722;23.268;2022-10-16T02:51:43;10.20;;;3.78;;
42246;SDS011;27913;42.722;23.268;2022-10-16T02:54:09;9.02;;;4.03;;
42246;SDS011;27913;42.722;23.268;2022-10-16T02:56:35;13.38;;;4.15;;
42246;SDS011;27913;42.722;23.268;2022-10-16T02:59:01;10.40;;;3.38;;
42246;SDS011;27913;42.722;23.268;2022-10-16T03:01:27;14.15;;;4.55;;
42246;SDS011;27913;42.722;23.268;2022-10-16T03:03:53;13.00;;;4.75;;
42246;SDS011;27913;42.722;23.268;2022-10-16T03:06:19;9.95;;;4.07;;
42246;SDS011;27913;42.722;23.268;2022-10-16T03:08:45;15.35;;;6.50;;
42246;SDS011;27913;42.722;23.268;2022-10-16T03:11:11;13.98;;;4.30;;
42246;SDS011;27913;42.722;23.268;2022-10-16T03:13:37;12.13;;;6.40;;
42246;SDS011;27913;42.722;23.268;2022-10-16T03:16:02;14.27;;;7.43;;
42246;SDS011;27913;42.722;23.268;2022-10-16T03:18:30;13.93;;;6.50;;
42246;SDS011;27913;42.722;23.268;2022-10-16T03:20:56;12.13;;;6.35;;
42246;SDS011;27913;42.722;23.268;2022-10-16T03:23:22;13.35;;;6.28;;
42246;SDS011;27913;42.722;23.268;2022-10-16T03:25:47;15.75;;;6.57;;
42246;SDS011;27913;42.722;23.268;2022-10-16T03:28:13;11.57;;;4.60;;
42246;SDS011;27913;42.722;23.268;2022-10-16T03:30:39;9.32;;;4.20;;
42246;SDS011;27913;42.722;23.268;2022-10-16T03:33:05;11.35;;;4.78;;
42246;SDS011;27913;42.722;23.268;2022-10-16T03:35:32;14.00;;;5.80;;
42246;SDS011;27913;42.722;23.268;2022-10-16T03:37:58;11.73;;;4.55;;
42246;SDS011;27913;42.722;23.268;2022-10-16T03:40:24;9.27;;;4.43;;
42246;SDS011;27913;42.722;23.268;2022-10-16T03:42:50;11.15;;;4.40;;
42246;SDS011;27913;42.722;23.268;2022-10-16T03:45:16;11.70;;;4.88;;
42246;SDS011;27913;42.722;23.268;2022-10-16T03:47:42;10.13;;;4.47;;
42246;SDS011;27913;42.722;23.268;2022-10-16T03:50:08;10.32;;;4.55;;
42246;SDS011;27913;42.722;23.268;2022-10-16T03:52:34;13.38;;;4.25;;
42246;SDS011;27913;42.722;23.268;2022-10-16T03:55:00;10.20;;;4.60;;
42246;SDS011;27913;42.722;23.268;2022-10-16T03:57:26;12.80;;;4.55;;
42246;SDS011;27913;42.722;23.268;2022-10-16T03:59:52;8.52;;;4.40;;
42246;SDS011;27913;42.722;23.268;2022-10-16T04:02:18;9.10;;;4.00;;
42246;SDS011;27913;42.722;23.268;2022-10-16T04:04:43;8.27;;;3.83;;
42246;SDS011;27913;42.722;23.268;2022-10-16T04:07:09;9.68;;;3.63;;
42246;SDS011;27913;42.722;23.268;2022-10-16T04:09:35;8.82;;;3.70;;
42246;SDS011;27913;42.722;23.268;2022-10-16T04:12:01;7.13;;;3.63;;
42246;SDS011;27913;42.722;23.268;2022-10-16T04:14:28;7.55;;;3.20;;
42246;SDS011;27913;42.722;23.268;2022-10-16T04:16:53;7.95;;;3.33;;
42246;SDS011;27913;42.722;23.268;2022-10-16T04:19:19;8.43;;;3.55;;
42246;SDS011;27913;42.722;23.268;2022-10-16T04:21:45;8.50;;;3.90;;
42246;SDS011;27913;42.722;23.268;2022-10-16T04:24:11;9.77;;;4.70;;
42246;SDS011;27913;42.722;23.268;2022-10-16T04:26:37;8.20;;;3.83;;
42246;SDS011;27913;42.722;23.268;2022-10-16T04:29:04;7.85;;;3.63;;
42246;SDS011;27913;42.722;23.268;2022-10-16T04:31:31;9.00;;;4.18;;
42246;SDS011;27913;42.722;23.268;2022-10-16T04:33:56;11.55;;;3.88;;
42246;SDS011;27913;42.722;23.268;2022-10-16T04:36:22;12.73;;;4.40;;
42246;SDS011;27913;42.722;23.268;2022-10-16T04:38:48;11.30;;;4.03;;
42246;SDS011;27913;42.722;23.268;2022-10-16T04:41:14;9.63;;;3.67;;
42246;SDS011;27913;42.722;23.268;2022-10-16T04:43:40;12.57;;;4.22;;
42246;SDS011;27913;42.722;23.268;2022-10-16T04:46:06;12.40;;;4.65;;
42246;SDS011;27913;42.722;23.268;2022-10-16T04:48:32;9.43;;;4.25;;
42246;SDS011;27913;42.722;23.268;2022-10-16T04:50:58;10.32;;;4.63;;
42246;SDS011;27913;42.722;23.268;2022-10-16T04:53:24;8.70;;;4.28;;
42246;SDS011;27913;42.722;23.268;2022-10-16T04:55:50;14.75;;;4.97;;
42246;SDS011;27913;42.722;23.268;2022-10-16T04:58:16;12.68;;;4.50;;
42246;SDS011;27913;42.722;23.268;2022-10-16T05:00:42;10.32;;;4.45;;
42246;SDS011;27913;42.722;23.268;2022-10-16T05:03:08;7.70;;;3.88;;
42246;SDS011;27913;42.722;23.268;2022-10-16T05:05:35;12.80;;;4.97;;
42246;SDS011;27913;42.722;23.268;2022-10-16T05:08:01;10.65;;;5.18;;
42246;SDS011;27913;42.722;23.268;2022-10-16T05:10:27;17.73;;;6.40;;
42246;SDS011;27913;42.722;23.268;2022-10-16T05:12:53;13.35;;;5.95;;
42246;SDS011;27913;42.722;23.268;2022-10-16T05:15:19;14.77;;;6.63;;
42246;SDS011;27913;42.722;23.268;2022-10-16T05:17:45;14.18;;;6.05;;
42246;SDS011;27913;42.722;23.268;2022-10-16T05:20:11;16.77;;;7.07;;
42246;SDS011;27913;42.722;23.268;2022-10-16T05:22:37;19.63;;;7.78;;
42246;SDS011;27913;42.722;23.268;2022-10-16T05:25:03;18.27;;;6.78;;
42246;SDS011;27913;42.722;23.268;2022-10-16T05:27:29;15.95;;;6.45;;
42246;SDS011;27913;42.722;23.268;2022-10-16T05:29:55;16.52;;;7.00;;
42246;SDS011;27913;42.722;23.268;2022-10-16T05:32:21;24.13;;;6.85;;
42246;SDS011;27913;42.722;23.268;2022-10-16T05:34:47;16.33;;;7.85;;
42246;SDS011;27913;42.722;23.268;2022-10-16T05:37:13;20.67;;;7.32;;
42246;SDS011;27913;42.722;23.268;2022-10-16T05:39:39;16.25;;;7.03;;
42246;SDS011;27913;42.722;23.268;2022-10-16T05:42:05;12.10;;;5.43;;
42246;SDS011;27913;42.722;23.268;2022-10-16T05:44:31;14.65;;;5.43;;
42246;SDS011;27913;42.722;23.268;2022-10-16T05:46:57;11.85;;;5.15;;
42246;SDS011;27913;42.722;23.268;2022-10-16T05:49:23;9.60;;;4.32;;
42246;SDS011;27913;42.722;23.268;2022-10-16T05:51:49;9.48;;;3.92;;
42246;SDS011;27913;42.722;23.268;2022-10-16T05:54:14;11.43;;;3.78;;
42246;SDS011;27913;42.722;23.268;2022-10-16T05:56:40;11.43;;;4.35;;
42246;SDS011;27913;42.722;23.268;2022-10-16T05:59:06;11.00;;;4.43;;
42246;SDS011;27913;42.722;23.268;2022-10-16T06:01:32;8.80;;;3.80;;
42246;SDS011;27913;42.722;23.268;2022-10-16T06:03:58;8.30;;;4.15;;
42246;SDS011;27913;42.722;23.268;2022-10-16T06:06:25;8.55;;;3.83;;
42246;SDS011;27913;42.722;23.268;2022-10-16T06:08:52;8.02;;;3.72;;
42246;SDS011;27913;42.722;23.268;2022-10-16T06:11:20;10.23;;;4.28;;
42246;SDS011;27913;42.722;23.268;2022-10-16T06:13:51;9.82;;;5.00;;
42246;SDS011;27913;42.722;23.268;2022-10-16T06:16:25;9.32;;;4.60;;
42246;SDS011;27913;42.722;23.268;2022-10-16T06:18:52;16.77;;;5.20;;
42246;SDS011;27913;42.722;23.268;2022-10-16T06:21:19;17.13;;;6.55;;
42246;SDS011;27913;42.722;23.268;2022-10-16T06:23:46;14.63;;;7.05;;
42246;SDS011;27913;42.722;23.268;2022-10-16T06:26:14;16.13;;;7.78;;
42246;SDS011;27913;42.722;23.268;2022-10-16T06:28:41;15.20;;;6.95;;
42246;SDS011;27913;42.722;23.268;2022-10-16T06:31:10;14.60;;;5.88;;
42246;SDS011;27913;42.722;23.268;2022-10-16T06:33:37;15.60;;;5.78;;
42246;SDS011;27913;42.722;23.268;2022-10-16T06:36:05;13.23;;;5.15;;
42246;SDS011;27913;42.722;23.268;2022-10-16T06:38:35;10.05;;;4.43;;
42246;SDS011;27913;42.722;23.268;2022-10-16T06:41:01;9.77;;;4.90;;
42246;SDS011;27913;42.722;23.268;2022-10-16T06:43:28;13.25;;;5.43;;
42246;SDS011;27913;42.722;23.268;2022-10-16T06:45:57;8.80;;;4.18;;
42246;SDS011;27913;42.722;23.268;2022-10-16T06:48:24;9.57;;;4.78;;
42246;SDS011;27913;42.722;23.268;2022-10-16T06:50:57;9.75;;;3.60;;
42246;SDS011;27913;42.722;23.268;2022-10-16T06:53:28;7.57;;;3.63;;
42246;SDS011;27913;42.722;23.268;2022-10-16T06:55:55;8.15;;;4.20;;
42246;SDS011;27913;42.722;23.268;2022-10-16T06:58:22;11.30;;;5.05;;
42246;SDS011;27913;42.722;23.268;2022-10-16T07:00:48;12.60;;;5.35;;
42246;SDS011;27913;42.722;23.268;2022-10-16T07:03:14;16.48;;;5.68;;
42246;SDS011;27913;42.722;23.268;2022-10-16T07:05:40;15.15;;;5.57;;
42246;SDS011;27913;42.722;23.268;2022-10-16T07:08:07;12.75;;;5.60;;
42246;SDS011;27913;42.722;23.268;2022-10-16T07:10:35;9.20;;;4.30;;
42246;SDS011;27913;42.722;23.268;2022-10-16T07:13:01;9.27;;;4.28;;
42246;SDS011;27913;42.722;23.268;2022-10-16T07:15:27;10.85;;;5.30;;
42246;SDS011;27913;42.722;23.268;2022-10-16T07:17:53;11.73;;;6.13;;
42246;SDS011;27913;42.722;23.268;2022-10-16T07:20:19;9.93;;;4.50;;
42246;SDS011;27913;42.722;23.268;2022-10-16T07:22:45;11.27;;;4.68;;
42246;SDS011;27913;42.722;23.268;2022-10-16T07:25:11;10.23;;;4.93;;
42246;SDS011;27913;42.722;23.268;2022-10-16T07:27:37;10.88;;;4.55;;
42246;SDS011;27913;42.722;23.268;2022-10-16T07:30:03;9.95;;;4.65;;
42246;SDS011;27913;42.722;23.268;2022-10-16T07:32:31;13.75;;;4.75;;
42246;SDS011;27913;42.722;23.268;2022-10-16T07:34:56;11.55;;;4.90;;
42246;SDS011;27913;42.722;23.268;2022-10-16T07:37:22;10.35;;;5.10;;
42246;SDS011;27913;42.722;23.268;2022-10-16T07:39:49;9.13;;;4.82;;
42246;SDS011;27913;42.722;23.268;2022-10-16T07:42:14;9.18;;;3.75;;
42246;SDS011;27913;42.722;23.268;2022-10-16T07:44:40;9.65;;;4.50;;
42246;SDS011;27913;42.722;23.268;2022-10-16T07:47:07;11.35;;;4.32;;
42246;SDS011;27913;42.722;23.268;2022-10-16T07:49:32;9.50;;;4.65;;
42246;SDS011;27913;42.722;23.268;2022-10-16T07:51:58;10.75;;;4.45;;
42246;SDS011;27913;42.722;23.268;2022-10-16T07:54:24;8.00;;;4.30;;
42246;SDS011;27913;42.722;23.268;2022-10-16T07:56:50;7.88;;;3.88;;
42246;SDS011;27913;42.722;23.268;2022-10-16T07:59:16;10.07;;;4.40;;
42246;SDS011;27913;42.722;23.268;2022-10-16T08:01:42;12.32;;;4.38;;
42246;SDS011;27913;42.722;23.268;2022-10-16T08:04:08;11.88;;;4.43;;
42246;SDS011;27913;42.722;23.268;2022-10-16T08:06:34;10.60;;;4.20;;
42246;SDS011;27913;42.722;23.268;2022-10-16T08:09:04;12.35;;;4.50;;
42246;SDS011;27913;42.722;23.268;2022-10-16T08:11:31;11.10;;;4.45;;
42246;SDS011;27913;42.722;23.268;2022-10-16T08:13:57;8.88;;;4.00;;
42246;SDS011;27913;42.722;23.268;2022-10-16T08:16:23;10.35;;;4.68;;
42246;SDS011;27913;42.722;23.268;2022-10-16T08:18:49;9.90;;;4.72;;
42246;SDS011;27913;42.722;23.268;2022-10-16T08:21:17;9.27;;;4.35;;
42246;SDS011;27913;42.722;23.268;2022-10-16T08:23:44;9.63;;;4.40;;
42246;SDS011;27913;42.722;23.268;2022-10-16T08:26:10;12.70;;;4.68;;
42246;SDS011;27913;42.722;23.268;2022-10-16T08:28:36;11.85;;;4.88;;
42246;SDS011;27913;42.722;23.268;2022-10-16T08:31:07;9.55;;;4.40;;
42246;SDS011;27913;42.722;23.268;2022-10-16T08:33:33;8.20;;;3.83;;
42246;SDS011;27913;42.722;23.268;2022-10-16T08:36:00;7.72;;;3.38;;
42246;SDS011;27913;42.722;23.268;2022-10-16T08:38:26;10.48;;;3.80;;
42246;SDS011;27913;42.722;23.268;2022-10-16T08:40:52;10.18;;;3.50;;
42246;SDS011;27913;42.722;23.268;2022-10-16T08:43:39;7.82;;;3.80;;
42246;SDS011;27913;42.722;23.268;2022-10-16T08:49:22;10.23;;;4.30;;
42246;SDS011;27913;42.722;23.268;2022-10-16T08:51:49;10.35;;;4.05;;
42246;SDS011;27913;42.722;23.268;2022-10-16T08:56:55;7.82;;;3.50;;
42246;SDS011;27913;42.722;23.268;2022-10-16T08:59:21;8.20;;;2.90;;
42246;SDS011;27913;42.722;23.268;2022-10-16T09:01:49;5.85;;;2.80;;
42246;SDS011;27913;42.722;23.268;2022-10-16T09:04:29;16.00;;;2.90;;
42246;SDS011;27913;42.722;23.268;2022-10-16T09:07:22;5.35;;;2.33;;
42246;SDS011;27913;42.722;23.268;2022-10-16T09:10:37;6.60;;;2.53;;
42246;SDS011;27913;42.722;23.268;2022-10-16T09:18:23;6.30;;;2.10;;
42246;SDS011;27913;42.722;23.268;2022-10-16T09:21:03;5.47;;;2.35;;
42246;SDS011;27913;42.722;23.268;2022-10-16T09:23:38;6.60;;;2.47;;
42246;SDS011;27913;42.722;23.268;2022-10-16T09:26:04;4.97;;;2.30;;
42246;SDS011;27913;42.722;23.268;2022-10-16T09:28:34;4.75;;;2.10;;
42246;SDS011;27913;42.722;23.268;2022-10-16T09:31:00;4.70;;;1.77;;
42246;SDS011;27913;42.722;23.268;2022-10-16T09:33:30;5.57;;;2.72;;
42246;SDS011;27913;42.722;23.268;2022-10-16T09:36:00;6.07;;;2.50;;
42246;SDS011;27913;42.722;23.268;2022-10-16T09:38:34;6.85;;;2.03;;
42246;SDS011;27913;42.722;23.268;2022-10-16T09:41:02;7.00;;;1.83;;
42246;SDS011;27913;42.722;23.268;2022-10-16T09:43:41;6.05;;;2.50;;
42246;SDS011;27913;42.722;23.268;2022-10-16T09:46:22;6.22;;;1.85;;
42246;SDS011;27913;42.722;23.268;2022-10-16T09:48:51;4.70;;;1.88;;
42246;SDS011;27913;42.722;23.268;2022-10-16T09:53:46;5.35;;;1.70;;
42246;SDS011;27913;42.722;23.268;2022-10-16T09:56:21;5.43;;;1.83;;
42246;SDS011;27913;42.722;23.268;2022-10-16T09:58:55;5.30;;;1.98;;
42246;SDS011;27913;42.722;23.268;2022-10-16T10:01:24;5.18;;;1.88;;
42246;SDS011;27913;42.722;23.268;2022-10-16T10:03:55;5.18;;;2.10;;
42246;SDS011;27913;42.722;23.268;2022-10-16T10:08:54;5.63;;;2.10;;
42246;SDS011;27913;42.722;23.268;2022-10-16T10:14:20;6.85;;;2.35;;
42246;SDS011;27913;42.722;23.268;2022-10-16T10:19:42;7.65;;;3.03;;
42246;SDS011;27913;42.722;23.268;2022-10-16T10:22:16;6.47;;;2.60;;
42246;SDS011;27913;42.722;23.268;2022-10-16T10:24:43;8.50;;;4.20;;
42246;SDS011;27913;42.722;23.268;2022-10-16T10:27:12;4.88;;;1.80;;
42246;SDS011;27913;42.722;23.268;2022-10-16T10:35:16;4.00;;;2.17;;
42246;SDS011;27913;42.722;23.268;2022-10-16T10:46:23;5.43;;;1.60;;
42246;SDS011;27913;42.722;23.268;2022-10-16T11:00:49;5.63;;;2.38;;
42246;SDS011;27913;42.722;23.268;2022-10-16T11:08:40;5.30;;;1.92;;
42246;SDS011;27913;42.722;23.268;2022-10-16T11:14:03;4.80;;;1.80;;
42246;SDS011;27913;42.722;23.268;2022-10-16T11:16:52;5.55;;;1.75;;
42246;SDS011;27913;42.722;23.268;2022-10-16T11:19:25;3.97;;;1.57;;
42246;SDS011;27913;42.722;23.268;2022-10-16T11:25:04;4.88;;;2.13;;
42246;SDS011;27913;42.722;23.268;2022-10-16T11:36:11;2.95;;;1.48;;
42246;SDS011;27913;42.722;23.268;2022-10-16T11:38:56;4.78;;;1.92;;
42246;SDS011;27913;42.722;23.268;2022-10-16T11:41:51;5.22;;;2.10;;
42246;SDS011;27913;42.722;23.268;2022-10-16T11:46:51;4.15;;;1.45;;
42246;SDS011;27913;42.722;23.268;2022-10-16T11:49:26;5.70;;;2.03;;
42246;SDS011;27913;42.722;23.268;2022-10-16T11:52:00;4.68;;;1.60;;
42246;SDS011;27913;42.722;23.268;2022-10-16T11:57:22;4.05;;;1.65;;
42246;SDS011;27913;42.722;23.268;2022-10-16T12:00:14;4.63;;;1.70;;
42246;SDS011;27913;42.722;23.268;2022-10-16T12:02:54;4.32;;;1.63;;
42246;SDS011;27913;42.722;23.268;2022-10-16T12:08:17;5.05;;;1.60;;
42246;SDS011;27913;42.722;23.268;2022-10-16T12:10:44;4.15;;;1.58;;
42246;SDS011;27913;42.722;23.268;2022-10-16T12:16:06;4.85;;;1.77;;
42246;SDS011;27913;42.722;23.268;2022-10-16T12:18:45;4.93;;;1.83;;
42246;SDS011;27913;42.722;23.268;2022-10-16T12:21:15;10.88;;;3.88;;
42246;SDS011;27913;42.722;23.268;2022-10-16T12:23:51;11.25;;;3.30;;
42246;SDS011;27913;42.722;23.268;2022-10-16T12:26:26;5.93;;;2.00;;
42246;SDS011;27913;42.722;23.268;2022-10-16T12:28:54;3.92;;;1.80;;
42246;SDS011;27913;42.722;23.268;2022-10-16T12:31:20;4.47;;;1.55;;
42246;SDS011;27913;42.722;23.268;2022-10-16T12:33:56;4.18;;;1.60;;
42246;SDS011;27913;42.722;23.268;2022-10-16T12:36:28;4.20;;;1.83;;
42246;SDS011;27913;42.722;23.268;2022-10-16T12:38:57;4.30;;;1.88;;
42246;SDS011;27913;42.722;23.268;2022-10-16T12:41:27;5.82;;;1.95;;
42246;SDS011;27913;42.722;23.268;2022-10-16T12:43:54;4.88;;;1.60;;
42246;SDS011;27913;42.722;23.268;2022-10-16T12:46:22;4.43;;;1.65;;
42246;SDS011;27913;42.722;23.268;2022-10-16T12:51:38;2.90;;;1.50;;
42246;SDS011;27913;42.722;23.268;2022-10-16T12:54:14;4.22;;;1.48;;
42246;SDS011;27913;42.722;23.268;2022-10-16T12:56:58;2.40;;;1.13;;
42246;SDS011;27913;42.722;23.268;2022-10-16T12:59:48;3.05;;;1.20;;
42246;SDS011;27913;42.722;23.268;2022-10-16T13:18:19;5.78;;;1.52;;
42246;SDS011;27913;42.722;23.268;2022-10-16T13:20:54;2.35;;;1.02;;
42246;SDS011;27913;42.722;23.268;2022-10-16T13:28:38;2.45;;;1.10;;
42246;SDS011;27913;42.722;23.268;2022-10-16T13:31:04;2.90;;;1.30;;
42246;SDS011;27913;42.722;23.268;2022-10-16T13:33:42;4.20;;;1.50;;
42246;SDS011;27913;42.722;23.268;2022-10-16T13:36:20;3.70;;;1.30;;
42246;SDS011;27913;42.722;23.268;2022-10-16T13:38:48;3.67;;;1.40;;
42246;SDS011;27913;42.722;23.268;2022-10-16T13:41:25;3.28;;;1.30;;
42246;SDS011;27913;42.722;23.268;2022-10-16T13:43:50;3.60;;;1.25;;
42246;SDS011;27913;42.722;23.268;2022-10-16T13:46:21;4.15;;;1.20;;
42246;SDS011;27913;42.722;23.268;2022-10-16T13:49:05;2.88;;;1.20;;
42246;SDS011;27913;42.722;23.268;2022-10-16T13:51:40;6.45;;;1.38;;
42246;SDS011;27913;42.722;23.268;2022-10-16T13:54:09;3.60;;;1.55;;
42246;SDS011;27913;42.722;23.268;2022-10-16T13:56:38;4.00;;;1.30;;
42246;SDS011;27913;42.722;23.268;2022-10-16T13:59:05;4.07;;;1.42;;
42246;SDS011;27913;42.722;23.268;2022-10-16T14:01:40;3.78;;;1.10;;
42246;SDS011;27913;42.722;23.268;2022-10-16T14:04:08;2.45;;;1.02;;
42246;SDS011;27913;42.722;23.268;2022-10-16T14:06:36;3.95;;;1.20;;
42246;SDS011;27913;42.722;23.268;2022-10-16T14:09:11;5.43;;;1.40;;
42246;SDS011;27913;42.722;23.268;2022-10-16T14:11:54;3.25;;;1.27;;
42246;SDS011;27913;42.722;23.268;2022-10-16T14:14:23;2.83;;;1.10;;
42246;SDS011;27913;42.722;23.268;2022-10-16T14:16:51;2.80;;;1.25;;
42246;SDS011;27913;42.722;23.268;2022-10-16T14:19:24;4.63;;;1.23;;
42246;SDS011;27913;42.722;23.268;2022-10-16T14:21:52;2.83;;;1.20;;
42246;SDS011;27913;42.722;23.268;2022-10-16T14:24:30;4.95;;;1.50;;
42246;SDS011;27913;42.722;23.268;2022-10-16T14:26:58;3.30;;;1.27;;
42246;SDS011;27913;42.722;23.268;2022-10-16T14:29:25;2.92;;;1.10;;
42246;SDS011;27913;42.722;23.268;2022-10-16T14:31:56;4.43;;;1.50;;
42246;SDS011;27913;42.722;23.268;2022-10-16T14:34:35;5.32;;;1.73;;
42246;SDS011;27913;42.722;23.268;2022-10-16T14:39:51;4.38;;;1.38;;
42246;SDS011;27913;42.722;23.268;2022-10-16T14:42:17;4.47;;;1.40;;
42246;SDS011;27913;42.722;23.268;2022-10-16T14:44:45;3.13;;;1.17;;
42246;SDS011;27913;42.722;23.268;2022-10-16T14:47:16;5.53;;;1.17;;
42246;SDS011;27913;42.722;23.268;2022-10-16T14:49:49;3.53;;;1.33;;
42246;SDS011;27913;42.722;23.268;2022-10-16T14:52:15;3.95;;;1.42;;
42246;SDS011;27913;42.722;23.268;2022-10-16T14:54:41;3.63;;;1.40;;
42246;SDS011;27913;42.722;23.268;2022-10-16T14:57:15;1.92;;;1.05;;
42246;SDS011;27913;42.722;23.268;2022-10-16T14:59:42;3.92;;;1.70;;
42246;SDS011;27913;42.722;23.268;2022-10-16T15:02:21;5.18;;;1.40;;
42246;SDS011;27913;42.722;23.268;2022-10-16T15:04:56;1.85;;;0.95;;
42246;SDS011;27913;42.722;23.268;2022-10-16T15:07:22;3.65;;;1.27;;
42246;SDS011;27913;42.722;23.268;2022-10-16T15:09:48;4.53;;;1.40;;
42246;SDS011;27913;42.722;23.268;2022-10-16T15:12:13;2.60;;;0.98;;
42246;SDS011;27913;42.722;23.268;2022-10-16T15:14:39;4.22;;;1.65;;
42246;SDS011;27913;42.722;23.268;2022-10-16T15:17:05;3.55;;;1.50;;
42246;SDS011;27913;42.722;23.268;2022-10-16T15:19:30;5.68;;;1.88;;
42246;SDS011;27913;42.722;23.268;2022-10-16T15:21:56;4.95;;;1.58;;
42246;SDS011;27913;42.722;23.268;2022-10-16T15:24:21;4.68;;;1.17;;
42246;SDS011;27913;42.722;23.268;2022-10-16T15:26:47;3.97;;;1.45;;
42246;SDS011;27913;42.722;23.268;2022-10-16T15:29:13;3.78;;;1.90;;
42246;SDS011;27913;42.722;23.268;2022-10-16T15:31:39;7.70;;;2.45;;
42246;SDS011;27913;42.722;23.268;2022-10-16T15:34:08;6.70;;;2.28;;
42246;SDS011;27913;42.722;23.268;2022-10-16T15:36:34;5.43;;;1.73;;
42246;SDS011;27913;42.722;23.268;2022-10-16T15:39:18;4.38;;;1.75;;
42246;SDS011;27913;42.722;23.268;2022-10-16T15:41:45;3.28;;;1.60;;
42246;SDS011;27913;42.722;23.268;2022-10-16T15:44:19;5.38;;;1.77;;
42246;SDS011;27913;42.722;23.268;2022-10-16T15:46:47;5.00;;;1.73;;
42246;SDS011;27913;42.722;23.268;2022-10-16T15:49:13;4.25;;;1.90;;
42246;SDS011;27913;42.722;23.268;2022-10-16T15:51:39;7.65;;;2.10;;
42246;SDS011;27913;42.722;23.268;2022-10-16T15:54:06;6.22;;;1.88;;
42246;SDS011;27913;42.722;23.268;2022-10-16T15:56:31;9.82;;;2.20;;
42246;SDS011;27913;42.722;23.268;2022-10-16T15:58:58;5.97;;;1.77;;
42246;SDS011;27913;42.722;23.268;2022-10-16T16:01:26;6.20;;;2.35;;
42246;SDS011;27913;42.722;23.268;2022-10-16T16:03:53;8.52;;;2.50;;
42246;SDS011;27913;42.722;23.268;2022-10-16T16:06:20;10.05;;;2.50;;
42246;SDS011;27913;42.722;23.268;2022-10-16T16:08:46;8.50;;;3.20;;
42246;SDS011;27913;42.722;23.268;2022-10-16T16:11:12;10.80;;;3.50;;
42246;SDS011;27913;42.722;23.268;2022-10-16T16:13:39;9.70;;;3.22;;
42246;SDS011;27913;42.722;23.268;2022-10-16T16:16:06;10.57;;;3.45;;
42246;SDS011;27913;42.722;23.268;2022-10-16T16:18:36;8.38;;;2.90;;
42246;SDS011;27913;42.722;23.268;2022-10-16T16:21:02;9.38;;;3.47;;
42246;SDS011;27913;42.722;23.268;2022-10-16T16:23:28;9.77;;;3.40;;
42246;SDS011;27913;42.722;23.268;2022-10-16T16:26:11;12.90;;;4.40;;
42246;SDS011;27913;42.722;23.268;2022-10-16T16:28:48;11.63;;;4.18;;
42246;SDS011;27913;42.722;23.268;2022-10-16T16:31:14;10.48;;;4.15;;
42246;SDS011;27913;42.722;23.268;2022-10-16T16:33:40;17.85;;;9.68;;
42246;SDS011;27913;42.722;23.268;2022-10-16T16:36:05;17.98;;;10.90;;
42246;SDS011;27913;42.722;23.268;2022-10-16T16:38:31;38.42;;;22.92;;
42246;SDS011;27913;42.722;23.268;2022-10-16T16:40:57;34.83;;;19.20;;
42246;SDS011;27913;42.722;23.268;2022-10-16T16:43:26;19.17;;;11.60;;
42246;SDS011;27913;42.722;23.268;2022-10-16T16:45:52;21.65;;;10.52;;
42246;SDS011;27913;42.722;23.268;2022-10-16T16:48:18;19.95;;;10.35;;
42246;SDS011;27913;42.722;23.268;2022-10-16T16:50:44;15.20;;;7.82;;